Time;durP1;ratioP1;P1;durP2;ratioP2;P2;SDS_P1;SDS_P2;PMS_P1;PMS_P2;Temp;Humidity;BMP_temperature;BMP_pressure;BME280_temperature;BME280_humidity;BME280_pressure;Samples;Min_cycle;Max_cycle;Signal;HPM_P1;HPM_P2
2022/09/18 00:01:32;;;;;;;9.18;4.30;;;9.00;99.90;;;;;;5092421;28;20058;-72
2022/09/18 00:04:01;;;;;;;5.18;3.30;;;8.90;99.90;;;;;;5093555;28;20058;-71
2022/09/18 00:06:29;;;;;;;5.75;3.30;;;8.90;99.90;;;;;;5093508;28;20035;-71
2022/09/18 00:08:58;;;;;;;6.45;3.85;;;8.80;99.90;;;;;;5092146;28;20039;-70
2022/09/18 00:11:26;;;;;;;5.97;3.47;;;8.80;99.90;;;;;;5093546;28;20099;-71
2022/09/18 00:13:52;;;;;;;7.25;3.42;;;8.80;99.90;;;;;;5092058;28;20027;-70
2022/09/18 00:16:20;;;;;;;9.32;4.03;;;8.80;99.90;;;;;;5092430;28;20024;-71
2022/09/18 00:18:47;;;;;;;5.50;3.40;;;8.80;99.90;;;;;;5093437;28;20024;-70
2022/09/18 00:21:18;;;;;;;7.00;3.80;;;8.80;99.90;;;;;;5075797;28;20100;-70
2022/09/18 00:23:44;;;;;;;6.53;3.22;;;8.80;99.90;;;;;;5073380;28;20070;-70
2022/09/18 00:26:11;;;;;;;8.85;3.53;;;8.80;99.90;;;;;;5073273;28;20029;-70
2022/09/18 00:28:37;;;;;;;5.50;4.13;;;8.80;99.90;;;;;;5073025;28;20020;-70
2022/09/18 00:31:15;;;;;;;10.10;4.32;;;8.70;99.90;;;;;;5072887;28;20052;-71
2022/09/18 00:33:41;;;;;;;8.60;3.88;;;8.70;99.90;;;;;;5073209;28;20021;-70
2022/09/18 00:36:09;;;;;;;9.13;3.78;;;8.70;99.90;;;;;;5073141;28;20017;-71
2022/09/18 00:38:35;;;;;;;10.52;3.50;;;8.60;99.90;;;;;;5073075;28;20501;-70
2022/09/18 00:41:03;;;;;;;6.28;3.28;;;8.60;99.90;;;;;;5073025;28;20025;-71
2022/09/18 00:43:31;;;;;;;9.30;3.83;;;8.60;99.90;;;;;;5083870;28;20016;-71
2022/09/18 00:46:04;;;;;;;8.00;3.47;;;8.50;99.90;;;;;;5097288;28;20024;-71
2022/09/18 00:48:41;;;;;;;6.68;3.30;;;8.50;99.90;;;;;;5095999;28;20145;-71
2022/09/18 00:51:07;;;;;;;7.05;3.67;;;8.50;99.90;;;;;;5096068;28;20016;-70
2022/09/18 00:53:34;;;;;;;8.23;3.47;;;8.50;99.90;;;;;;5097174;28;20028;-71
2022/09/18 00:56:02;;;;;;;10.07;4.03;;;8.50;99.90;;;;;;5097156;28;20024;-71
2022/09/18 00:58:28;;;;;;;7.00;4.03;;;8.60;99.90;;;;;;5097258;28;20060;-71
2022/09/18 01:00:54;;;;;;;7.20;3.50;;;8.60;99.90;;;;;;5096813;28;20570;-71
2022/09/18 01:03:20;;;;;;;10.70;3.65;;;8.50;99.90;;;;;;5097074;28;20035;-71
2022/09/18 01:06:09;;;;;;;5.45;3.53;;;8.50;99.90;;;;;;5096912;28;20020;-71
2022/09/18 01:08:47;;;;;;;14.95;3.53;;;8.50;99.90;;;;;;5089074;28;20056;-71
2022/09/18 01:11:41;;;;;;;6.68;3.83;;;8.50;99.90;;;;;;5095468;28;20020;-70
2022/09/18 01:14:22;;;;;;;7.50;3.22;;;8.50;99.90;;;;;;5096933;28;20030;-70
2022/09/18 01:16:53;;;;;;;6.03;3.25;;;8.50;99.90;;;;;;5096791;28;20085;-70
2022/09/18 01:19:31;;;;;;;5.32;3.40;;;8.50;99.90;;;;;;5094551;28;20423;-70
2022/09/18 01:22:33;;;;;;;8.30;4.88;;;8.40;99.90;;;;;;5076328;28;20021;-71
2022/09/18 01:25:12;;;;;;;8.10;4.43;;;8.40;99.90;;;;;;5076298;28;20056;-71
2022/09/18 01:27:40;;;;;;;4.55;3.25;;;8.30;99.90;;;;;;5076301;28;20466;-72
2022/09/18 01:30:08;;;;;;;7.32;5.15;;;8.30;99.90;;;;;;5076186;28;20028;-70
2022/09/18 01:32:45;;;;;;;7.20;3.78;;;8.30;99.90;;;;;;5076297;28;20048;-70
2022/09/18 01:35:20;;;;;;;8.35;3.35;;;8.30;99.90;;;;;;5074752;28;20173;-70
2022/09/18 01:38:25;;;;;;;7.70;4.10;;;8.30;99.90;;;;;;5076153;28;20444;-71
2022/09/18 01:41:01;;;;;;;5.97;3.80;;;8.20;99.90;;;;;;5070145;28;20419;-70
2022/09/18 01:43:29;;;;;;;9.68;3.90;;;8.20;99.90;;;;;;5084996;28;20039;-71
2022/09/18 01:46:00;;;;;;;5.53;4.15;;;8.20;99.90;;;;;;5096152;28;20017;-71
2022/09/18 01:48:33;;;;;;;9.55;4.82;;;8.10;99.90;;;;;;5096154;28;20052;-70
2022/09/18 01:51:07;;;;;;;8.07;3.50;;;8.20;99.90;;;;;;5096187;28;20032;-70
2022/09/18 01:53:39;;;;;;;8.93;3.63;;;8.10;99.90;;;;;;5096187;28;20020;-70
2022/09/18 01:56:12;;;;;;;5.40;3.50;;;8.10;99.90;;;;;;5096128;28;20024;-70
2022/09/18 01:58:38;;;;;;;7.93;3.88;;;8.10;99.90;;;;;;5096013;28;20036;-70
2022/09/18 02:01:11;;;;;;;8.13;3.53;;;8.20;99.90;;;;;;5095925;28;20103;-71
2022/09/18 02:03:46;;;;;;;8.70;3.70;;;8.10;99.90;;;;;;5095939;28;20553;-70
2022/09/18 02:06:25;;;;;;;6.63;3.47;;;8.10;99.90;;;;;;5095850;28;20024;-70
2022/09/18 02:08:54;;;;;;;5.72;3.47;;;8.10;99.90;;;;;;5095681;28;20024;-72
2022/09/18 02:11:21;;;;;;;5.53;3.90;;;8.00;99.90;;;;;;5095702;28;20024;-71
2022/09/18 02:14:19;;;;;;;8.60;4.03;;;8.10;99.90;;;;;;5095658;28;20030;-70
2022/09/18 02:16:53;;;;;;;8.13;3.63;;;8.00;99.90;;;;;;5095630;28;20073;-71
2022/09/18 02:19:24;;;;;;;11.73;5.18;;;8.10;99.90;;;;;;5092054;28;20461;-71
2022/09/18 02:21:53;;;;;;;8.45;4.68;;;8.10;99.90;;;;;;5075280;28;20020;-70
2022/09/18 02:24:23;;;;;;;7.70;4.63;;;8.10;99.90;;;;;;5074060;28;20028;-71
2022/09/18 02:26:51;;;;;;;15.07;4.88;;;8.00;99.90;;;;;;5075234;28;20025;-71
2022/09/18 02:29:20;;;;;;;7.75;4.00;;;8.10;99.90;;;;;;5075160;28;20013;-70
2022/09/18 02:31:45;;;;;;;14.50;4.72;;;8.00;99.90;;;;;;5075033;28;20056;-71
2022/09/18 02:34:11;;;;;;;11.93;4.85;;;8.00;99.90;;;;;;5073773;28;20027;-72
2022/09/18 02:36:55;;;;;;;10.13;4.57;;;8.00;99.90;;;;;;5074854;28;20040;-70
2022/09/18 02:39:39;;;;;;;7.00;4.03;;;8.00;99.90;;;;;;5075024;28;20017;-70
2022/09/18 02:42:34;;;;;;;9.07;3.85;;;8.00;99.90;;;;;;5073367;28;20029;-70
2022/09/18 02:45:26;;;;;;;5.93;4.28;;;8.00;99.90;;;;;;5095148;28;20021;-70
2022/09/18 02:48:30;;;;;;;5.10;3.33;;;8.00;99.90;;;;;;5095123;28;20024;-70
2022/09/18 02:51:15;;;;;;;9.13;4.03;;;8.00;99.90;;;;;;5095085;28;20028;-71
2022/09/18 02:53:46;;;;;;;8.00;4.53;;;7.90;99.90;;;;;;5094548;28;20416;-71
2022/09/18 02:56:24;;;;;;;9.55;4.45;;;7.90;99.90;;;;;;5094756;28;20028;-70
2022/09/18 02:59:00;;;;;;;7.97;3.78;;;7.90;99.90;;;;;;5094967;28;20031;-70
2022/09/18 03:01:26;;;;;;;9.55;4.00;;;7.90;99.90;;;;;;5094800;28;20028;-70
2022/09/18 03:03:52;;;;;;;8.02;4.68;;;7.90;99.90;;;;;;5094810;28;20016;-71
2022/09/18 03:06:18;;;;;;;9.20;3.35;;;7.90;99.90;;;;;;5094272;28;20043;-72
2022/09/18 03:08:43;;;;;;;8.82;3.50;;;7.90;99.90;;;;;;5094835;28;20132;-70
2022/09/18 03:11:09;;;;;;;6.95;3.88;;;7.80;99.90;;;;;;5094546;28;20072;-71
2022/09/18 03:13:35;;;;;;;4.47;3.15;;;7.80;99.90;;;;;;5094541;28;20033;-70
2022/09/18 03:16:00;;;;;;;15.48;6.72;;;7.70;99.90;;;;;;5094447;28;20060;-71
2022/09/18 03:18:26;;;;;;;7.00;3.50;;;7.70;99.90;;;;;;5094382;28;20036;-72
2022/09/18 03:20:52;;;;;;;7.28;4.07;;;7.70;99.90;;;;;;5093041;28;20020;-70
2022/09/18 03:23:17;;;;;;;9.82;3.38;;;7.70;99.90;;;;;;5094420;28;20094;-70
2022/09/18 03:25:43;;;;;;;7.97;3.78;;;7.60;99.90;;;;;;5094503;28;20027;-70
2022/09/18 03:28:09;;;;;;;9.50;3.22;;;7.60;99.90;;;;;;5094262;28;20027;-71
2022/09/18 03:30:35;;;;;;;5.90;3.80;;;7.60;99.90;;;;;;5094029;28;20081;-70
2022/09/18 03:33:00;;;;;;;6.55;3.03;;;7.50;99.90;;;;;;5092789;28;20020;-71
2022/09/18 03:35:26;;;;;;;10.25;3.33;;;7.50;99.90;;;;;;5094147;28;20073;-70
2022/09/18 03:37:52;;;;;;;7.28;4.00;;;7.50;99.90;;;;;;5093934;28;20036;-70
2022/09/18 03:40:18;;;;;;;8.98;3.67;;;7.50;99.90;;;;;;5094164;28;20020;-71
2022/09/18 03:42:44;;;;;;;9.23;3.58;;;7.50;99.90;;;;;;5090225;28;20027;-71
2022/09/18 03:45:11;;;;;;;5.05;3.28;;;7.40;99.90;;;;;;5073766;28;20031;-71
2022/09/18 03:47:36;;;;;;;9.90;3.50;;;7.40;99.90;;;;;;5073595;28;20032;-70
2022/09/18 03:50:03;;;;;;;12.35;3.50;;;7.40;99.90;;;;;;5073701;28;20383;-71
2022/09/18 03:52:29;;;;;;;10.48;3.58;;;7.30;99.90;;;;;;5072275;28;20028;-70
2022/09/18 03:54:54;;;;;;;5.43;3.35;;;7.30;99.90;;;;;;5073586;28;20043;-71
2022/09/18 03:57:20;;;;;;;7.15;3.35;;;7.20;99.90;;;;;;5073441;28;20032;-71
2022/09/18 03:59:45;;;;;;;8.73;3.10;;;7.20;99.90;;;;;;5072286;28;20508;-71
2022/09/18 04:02:11;;;;;;;4.60;3.55;;;7.20;99.90;;;;;;5073518;28;20437;-72
2022/09/18 04:04:37;;;;;;;10.48;3.58;;;7.10;99.90;;;;;;5072114;28;20032;-71
2022/09/18 04:07:03;;;;;;;9.75;3.35;;;7.00;99.90;;;;;;5073327;28;20021;-71
2022/09/18 04:09:28;;;;;;;14.93;4.70;;;7.00;99.90;;;;;;5073373;28;20445;-71
2022/09/18 04:11:54;;;;;;;4.05;3.03;;;7.00;99.90;;;;;;5072025;28;20115;-71
2022/09/18 04:14:21;;;;;;;9.88;3.60;;;7.00;99.90;;;;;;5071973;28;20027;-70
2022/09/18 04:16:47;;;;;;;5.57;3.45;;;7.00;99.90;;;;;;5073136;28;20028;-70
2022/09/18 04:19:13;;;;;;;10.63;3.70;;;7.00;99.90;;;;;;5073482;28;20032;-70
2022/09/18 04:21:39;;;;;;;13.73;4.18;;;6.90;99.90;;;;;;5093473;28;20114;-70
2022/09/18 04:24:05;;;;;;;10.32;3.90;;;6.90;99.90;;;;;;5093336;28;20077;-70
2022/09/18 04:26:33;;;;;;;8.25;4.07;;;6.90;99.90;;;;;;5093482;28;20388;-72
2022/09/18 04:28:58;;;;;;;8.52;4.30;;;6.90;99.90;;;;;;5093261;28;20032;-70
2022/09/18 04:31:24;;;;;;;10.20;3.85;;;6.90;99.90;;;;;;5093208;28;20133;-70
2022/09/18 04:33:50;;;;;;;8.05;4.07;;;6.90;99.90;;;;;;5093266;28;20393;-72
2022/09/18 04:36:15;;;;;;;9.30;4.55;;;6.90;99.90;;;;;;5093139;28;20103;-72
2022/09/18 04:38:41;;;;;;;12.18;4.03;;;6.90;99.90;;;;;;5091888;28;20032;-71
2022/09/18 04:41:07;;;;;;;7.75;3.95;;;6.90;99.90;;;;;;5091966;28;20536;-70
2022/09/18 04:43:32;;;;;;;8.25;3.67;;;6.90;99.90;;;;;;5082257;28;20028;-71
2022/09/18 04:45:58;;;;;;;7.20;4.10;;;6.80;99.90;;;;;;5072971;28;20025;-71
2022/09/18 04:48:24;;;;;;;9.38;4.47;;;6.80;99.90;;;;;;5072974;28;20037;-70
2022/09/18 04:50:50;;;;;;;8.70;3.97;;;6.70;99.90;;;;;;5071645;28;20016;-70
2022/09/18 04:53:15;;;;;;;9.65;3.85;;;6.80;99.90;;;;;;5071573;28;20104;-70
2022/09/18 04:55:44;;;;;;;11.38;4.00;;;6.80;99.90;;;;;;5072984;28;20040;-71
2022/09/18 04:58:11;;;;;;;10.45;4.28;;;6.80;99.90;;;;;;5071470;28;20087;-71
2022/09/18 05:00:37;;;;;;;7.47;4.05;;;6.80;99.90;;;;;;5072847;28;20029;-71
2022/09/18 05:03:03;;;;;;;10.65;4.20;;;6.80;99.90;;;;;;5072785;28;20474;-70
2022/09/18 05:05:29;;;;;;;11.23;3.85;;;6.80;99.90;;;;;;5072916;28;20024;-70
2022/09/18 05:07:58;;;;;;;8.85;4.50;;;6.80;99.90;;;;;;5072835;28;20051;-70
2022/09/18 05:10:24;;;;;;;15.23;5.05;;;6.90;99.90;;;;;;5072808;28;20032;-70
2022/09/18 05:12:49;;;;;;;9.73;4.68;;;6.90;99.90;;;;;;5072697;28;20390;-70
2022/09/18 05:15:15;;;;;;;7.57;4.60;;;7.00;99.90;;;;;;5072701;28;20474;-70
2022/09/18 05:17:41;;;;;;;9.63;5.70;;;7.00;99.90;;;;;;5071199;28;20028;-72
2022/09/18 05:20:07;;;;;;;9.45;5.18;;;7.00;99.90;;;;;;5082427;28;20024;-70
2022/09/18 05:22:33;;;;;;;8.55;4.80;;;7.10;99.90;;;;;;5092965;28;20024;-71
2022/09/18 05:24:59;;;;;;;12.05;5.45;;;7.00;99.90;;;;;;5092801;28;20032;-70
2022/09/18 05:27:24;;;;;;;7.15;4.22;;;7.10;99.90;;;;;;5092376;28;20039;-71
2022/09/18 05:29:50;;;;;;;10.15;4.65;;;7.10;99.90;;;;;;5095216;28;20412;-70
2022/09/18 05:32:19;;;;;;;8.88;4.05;;;7.10;99.90;;;;;;5096314;28;20083;-72
2022/09/18 05:34:48;;;;;;;8.55;4.57;;;7.10;99.90;;;;;;5095004;28;20024;-71
2022/09/18 05:37:17;;;;;;;8.85;4.45;;;7.20;99.90;;;;;;5095173;28;20032;-70
2022/09/18 05:39:43;;;;;;;7.63;4.63;;;7.20;99.90;;;;;;5094902;28;20020;-70
2022/09/18 05:42:09;;;;;;;9.18;4.95;;;7.30;99.90;;;;;;5096044;28;20081;-70
2022/09/18 05:44:35;;;;;;;9.48;5.03;;;7.30;99.90;;;;;;5095832;28;20032;-72
2022/09/18 05:47:00;;;;;;;9.65;4.97;;;7.30;99.90;;;;;;5096218;28;20025;-71
2022/09/18 05:49:26;;;;;;;8.82;5.07;;;7.40;99.90;;;;;;5096036;28;20024;-71
2022/09/18 05:51:53;;;;;;;10.18;5.57;;;7.50;99.90;;;;;;5095826;28;20020;-71
2022/09/18 05:54:19;;;;;;;9.35;4.57;;;7.40;99.90;;;;;;5095808;28;20389;-70
2022/09/18 05:56:45;;;;;;;9.68;4.97;;;7.50;99.90;;;;;;5094231;28;20109;-70
2022/09/18 05:59:11;;;;;;;5.53;4.45;;;7.50;99.90;;;;;;5095750;28;20029;-70
2022/09/18 06:01:37;;;;;;;10.18;4.32;;;7.50;99.90;;;;;;5095800;28;20028;-71
2022/09/18 06:04:03;;;;;;;11.32;4.43;;;7.60;99.90;;;;;;5095174;28;20023;-72
2022/09/18 06:06:29;;;;;;;11.63;4.55;;;7.60;99.90;;;;;;5092838;28;20027;-71
2022/09/18 06:08:54;;;;;;;7.55;4.72;;;7.60;99.90;;;;;;5095227;28;20055;-70
2022/09/18 06:11:20;;;;;;;7.75;4.22;;;7.60;99.90;;;;;;5095099;28;20021;-71
2022/09/18 06:13:50;;;;;;;7.68;4.90;;;7.60;99.90;;;;;;5095483;28;20047;-70
2022/09/18 06:16:16;;;;;;;7.50;4.72;;;7.60;99.90;;;;;;5095664;28;20066;-71
2022/09/18 06:18:42;;;;;;;5.20;4.50;;;7.70;99.90;;;;;;5095516;28;20029;-71
2022/09/18 06:21:08;;;;;;;9.13;4.70;;;7.70;99.90;;;;;;5095073;28;20019;-71
2022/09/18 06:23:33;;;;;;;9.73;5.35;;;7.70;99.90;;;;;;5094666;28;20020;-71
2022/09/18 06:26:04;;;;;;;10.93;7.38;;;7.80;99.90;;;;;;5094279;28;20062;-71
2022/09/18 06:28:31;;;;;;;18.05;7.88;;;7.90;99.90;;;;;;5095174;28;20095;-70
2022/09/18 06:31:01;;;;;;;15.52;10.07;;;7.90;99.90;;;;;;5094664;28;20400;-70
2022/09/18 06:33:31;;;;;;;21.65;13.07;;;8.00;99.90;;;;;;5093556;28;20024;-71
2022/09/18 06:35:57;;;;;;;27.17;13.45;;;8.00;99.90;;;;;;5095240;28;20031;-73
2022/09/18 06:38:22;;;;;;;22.77;12.43;;;8.00;99.90;;;;;;5095241;28;20111;-72
2022/09/18 06:40:50;;;;;;;21.92;14.15;;;8.10;99.90;;;;;;5094157;28;20060;-72
2022/09/18 06:43:16;;;;;;;21.08;12.93;;;8.20;99.90;;;;;;5094517;28;20477;-72
2022/09/18 06:45:41;;;;;;;22.35;13.23;;;8.20;99.90;;;;;;5094567;28;20066;-72
2022/09/18 06:48:07;;;;;;;27.88;15.23;;;8.30;99.90;;;;;;5094578;28;20473;-72
2022/09/18 06:50:32;;;;;;;29.80;16.60;;;8.30;99.90;;;;;;5094427;28;20462;-72
2022/09/18 06:53:05;;;;;;;26.33;15.05;;;8.40;99.90;;;;;;5094418;28;20121;-71
2022/09/18 06:55:31;;;;;;;28.20;15.82;;;8.50;99.90;;;;;;5094453;28;20023;-71
2022/09/18 06:57:59;;;;;;;36.75;18.75;;;8.60;99.90;;;;;;5094355;28;20397;-71
2022/09/18 07:00:25;;;;;;;36.15;20.38;;;8.70;99.90;;;;;;5094295;28;20478;-71
2022/09/18 07:03:00;;;;;;;30.75;19.65;;;8.70;99.90;;;;;;5093145;28;20020;-72
2022/09/18 07:05:28;;;;;;;32.42;17.88;;;8.80;99.90;;;;;;5094233;28;20089;-72
2022/09/18 07:07:53;;;;;;;34.90;21.27;;;8.70;99.90;;;;;;5094145;28;20052;-72
2022/09/18 07:10:19;;;;;;;25.88;16.75;;;8.70;99.90;;;;;;5093718;28;20469;-72
2022/09/18 07:12:47;;;;;;;37.25;19.85;;;8.80;99.90;;;;;;5093974;28;20026;-72
2022/09/18 07:15:17;;;;;;;34.45;17.85;;;8.80;99.90;;;;;;5093991;28;20024;-72
2022/09/18 07:17:43;;;;;;;29.10;18.30;;;8.90;99.90;;;;;;5093873;28;20035;-72
2022/09/18 07:20:11;;;;;;;27.52;16.95;;;9.10;99.90;;;;;;5093635;28;20023;-72
2022/09/18 07:22:37;;;;;;;27.08;17.10;;;9.10;99.90;;;;;;5093677;28;20012;-72
2022/09/18 07:25:03;;;;;;;25.25;15.27;;;9.10;99.90;;;;;;5093783;28;20028;-71
2022/09/18 07:27:29;;;;;;;25.23;15.05;;;9.20;99.90;;;;;;5093835;28;20035;-71
2022/09/18 07:29:55;;;;;;;29.45;16.13;;;9.20;99.90;;;;;;5093626;28;20378;-71
2022/09/18 07:32:22;;;;;;;20.27;14.07;;;9.20;99.90;;;;;;5093376;28;20559;-72
2022/09/18 07:34:47;;;;;;;21.88;13.27;;;9.20;99.90;;;;;;5093628;28;20070;-72
2022/09/18 07:37:13;;;;;;;20.00;11.57;;;9.20;99.90;;;;;;5093435;28;20040;-73
2022/09/18 07:39:39;;;;;;;18.75;12.20;;;9.10;99.90;;;;;;5091939;28;20024;-72
2022/09/18 07:42:05;;;;;;;18.48;10.30;;;9.00;99.90;;;;;;5091822;28;20045;-73
2022/09/18 07:44:33;;;;;;;17.63;10.10;;;9.00;99.90;;;;;;5073343;28;20123;-74
2022/09/18 07:46:58;;;;;;;15.07;9.95;;;9.00;99.90;;;;;;5072899;28;20482;-74
2022/09/18 07:49:24;;;;;;;17.52;9.45;;;9.00;99.90;;;;;;5071688;28;20024;-74
2022/09/18 07:51:50;;;;;;;16.10;9.75;;;9.10;99.90;;;;;;5071601;28;20115;-74
2022/09/18 07:54:15;;;;;;;16.10;9.95;;;9.10;99.90;;;;;;5071455;28;20032;-74
2022/09/18 07:56:41;;;;;;;17.88;11.00;;;9.10;99.90;;;;;;5072785;28;20036;-72
2022/09/18 07:59:06;;;;;;;17.23;11.20;;;9.20;99.90;;;;;;5072766;28;20039;-72
2022/09/18 08:01:33;;;;;;;20.00;11.90;;;9.20;99.90;;;;;;5072866;28;20490;-75
2022/09/18 08:04:00;;;;;;;15.23;10.73;;;9.20;99.90;;;;;;5076592;28;20491;-74
2022/09/18 08:06:27;;;;;;;15.30;11.18;;;9.30;99.90;;;;;;5091729;28;20467;-75
2022/09/18 08:08:52;;;;;;;14.90;9.95;;;9.30;99.90;;;;;;5092814;28;20439;-74
2022/09/18 08:11:18;;;;;;;17.65;11.13;;;9.50;99.90;;;;;;5089862;28;20020;-72
2022/09/18 08:13:46;;;;;;;14.38;9.98;;;9.50;99.90;;;;;;5092855;28;20028;-71
2022/09/18 08:16:12;;;;;;;12.38;9.15;;;9.60;99.90;;;;;;5092797;28;20416;-72
2022/09/18 08:18:38;;;;;;;13.13;9.07;;;9.70;99.90;;;;;;5093051;28;20557;-72
2022/09/18 08:21:04;;;;;;;9.57;7.78;;;9.90;99.90;;;;;;5092252;28;20020;-72
2022/09/18 08:23:30;;;;;;;9.82;7.07;;;9.90;99.90;;;;;;5091552;28;20465;-74
2022/09/18 08:25:58;;;;;;;9.43;7.53;;;9.90;99.90;;;;;;5092820;28;20027;-74
2022/09/18 08:28:24;;;;;;;9.55;7.97;;;10.00;99.90;;;;;;5091860;28;20024;-74
2022/09/18 08:30:49;;;;;;;8.70;7.18;;;9.80;99.90;;;;;;5093141;28;20059;-74
2022/09/18 08:33:15;;;;;;;11.90;7.25;;;9.80;99.90;;;;;;5092595;28;20020;-72
2022/09/18 08:35:40;;;;;;;12.02;10.02;;;9.80;99.90;;;;;;5092451;28;20035;-74
2022/09/18 08:38:09;;;;;;;14.90;11.20;;;9.80;99.90;;;;;;5090932;28;20118;-72
2022/09/18 08:41:07;;;;;;;17.00;11.77;;;9.60;99.90;;;;;;5093028;28;20436;-72
2022/09/18 08:43:44;;;;;;;17.23;11.70;;;9.40;99.90;;;;;;5092900;28;20020;-73
2022/09/18 08:46:15;;;;;;;18.50;11.27;;;9.30;99.90;;;;;;5093048;28;20054;-74
2022/09/18 08:48:58;;;;;;;15.27;11.15;;;9.30;99.90;;;;;;5093059;28;20528;-74
2022/09/18 08:51:36;;;;;;;12.25;8.90;;;9.20;99.90;;;;;;5088378;28;20043;-74
2022/09/18 08:54:26;;;;;;;10.43;8.85;;;9.20;99.90;;;;;;5079761;28;20024;-74
2022/09/18 08:56:54;;;;;;;12.65;9.43;;;9.30;99.90;;;;;;5092930;28;20401;-74
2022/09/18 08:59:34;;;;;;;11.63;8.07;;;9.40;99.90;;;;;;5092631;28;20031;-74
2022/09/18 09:02:14;;;;;;;11.45;8.25;;;9.50;99.90;;;;;;5091665;28;20020;-74
2022/09/18 09:04:41;;;;;;;7.13;6.35;;;9.60;99.90;;;;;;5095484;28;20082;-74
2022/09/18 09:07:38;;;;;;;7.82;5.60;;;9.80;99.90;;;;;;5095167;28;20069;-74
2022/09/18 09:10:38;;;;;;;5.43;4.95;;;10.00;99.90;;;;;;5097023;28;20034;-74
2022/09/18 09:13:23;;;;;;;6.88;4.50;;;10.30;99.90;;;;;;5096876;28;20531;-73
2022/09/18 09:15:55;;;;;;;6.05;4.03;;;10.50;99.90;;;;;;5095855;28;20024;-72
2022/09/18 09:18:22;;;;;;;4.28;3.78;;;10.60;99.90;;;;;;5095615;28;20424;-72
2022/09/18 09:20:56;;;;;;;5.20;4.53;;;10.70;99.90;;;;;;5096628;28;20519;-72
2022/09/18 09:23:53;;;;;;;4.75;3.58;;;10.70;99.90;;;;;;5095285;28;20026;-72
2022/09/18 09:26:22;;;;;;;4.53;4.13;;;10.50;99.90;;;;;;5096705;28;20034;-72
2022/09/18 09:29:20;;;;;;;5.53;3.97;;;10.50;99.90;;;;;;5096711;28;20474;-72
2022/09/18 09:32:03;;;;;;;5.22;3.85;;;10.50;99.90;;;;;;5096720;28;20056;-72
2022/09/18 09:34:43;;;;;;;5.50;3.65;;;10.60;99.90;;;;;;5095286;28;20020;-72
2022/09/18 09:37:15;;;;;;;2.92;2.63;;;10.60;99.90;;;;;;5096227;28;20032;-72
2022/09/18 09:39:48;;;;;;;3.05;2.85;;;10.70;99.90;;;;;;5095227;28;20025;-72
2022/09/18 09:42:48;;;;;;;2.58;2.38;;;10.50;99.90;;;;;;5095849;28;20028;-71
2022/09/18 09:45:19;;;;;;;3.80;3.50;;;10.50;99.90;;;;;;5095867;28;20515;-72
2022/09/18 09:48:07;;;;;;;4.05;3.20;;;10.60;99.90;;;;;;5094642;28;20040;-72
2022/09/18 09:50:48;;;;;;;2.63;2.42;;;10.60;99.90;;;;;;5095782;28;20120;-72
2022/09/18 09:53:13;;;;;;;3.83;2.38;;;10.50;99.90;;;;;;5095693;28;20449;-72
2022/09/18 09:55:53;;;;;;;2.40;2.20;;;10.60;99.90;;;;;;5095792;28;20115;-72
2022/09/18 09:58:44;;;;;;;2.92;2.15;;;10.90;99.90;;;;;;5095730;28;20404;-72
2022/09/18 10:01:28;;;;;;;2.22;1.77;;;11.20;99.90;;;;;;5096113;28;20423;-72
2022/09/18 10:03:54;;;;;;;1.65;1.30;;;11.40;99.90;;;;;;5095939;28;20116;-72
2022/09/18 10:06:23;;;;;;;2.55;1.90;;;11.30;99.90;;;;;;5095042;28;20119;-72
2022/09/18 10:09:04;;;;;;;1.83;1.73;;;11.50;99.90;;;;;;5096085;28;20028;-72
2022/09/18 10:11:32;;;;;;;1.60;1.50;;;11.50;99.90;;;;;;5096120;28;20028;-72
2022/09/18 10:14:03;;;;;;;1.80;1.70;;;11.50;99.90;;;;;;5095593;28;20075;-72
2022/09/18 10:16:34;;;;;;;1.80;1.65;;;11.30;99.90;;;;;;5093832;28;20016;-72
2022/09/18 10:19:00;;;;;;;1.60;1.50;;;11.20;99.90;;;;;;5091426;28;20103;-72
2022/09/18 10:21:30;;;;;;;2.53;1.70;;;11.20;99.90;;;;;;5072105;28;20021;-72
2022/09/18 10:23:58;;;;;;;2.20;1.55;;;11.40;99.90;;;;;;5072485;28;20032;-72
2022/09/18 10:27:08;;;;;;;1.95;1.40;;;11.70;99.90;;;;;;5074345;28;20082;-72
2022/09/18 10:29:34;;;;;;;1.30;1.00;;;12.00;99.90;;;;;;5031962;28;20032;-72
2022/09/18 10:32:00;;;;;;;1.65;1.10;;;11.70;99.90;;;;;;5065723;28;20056;-72
2022/09/18 10:34:31;;;;;;;2.13;1.10;;;11.60;99.90;;;;;;5073701;28;20012;-72
2022/09/18 10:36:57;;;;;;;1.25;0.95;;;11.50;99.90;;;;;;5075200;28;20430;-72
2022/09/18 10:39:29;;;;;;;0.90;0.90;;;11.40;99.90;;;;;;5074845;28;20052;-72
2022/09/18 10:42:04;;;;;;;4.00;1.58;;;11.40;99.90;;;;;;5075156;28;20086;-72
2022/09/18 10:44:40;;;;;;;1.33;1.00;;;11.60;99.90;;;;;;5073555;28;20074;-72
2022/09/18 10:47:20;;;;;;;0.95;0.93;;;11.70;99.90;;;;;;5074877;28;20032;-72
2022/09/18 10:49:53;;;;;;;1.20;1.08;;;11.60;99.90;;;;;;5075026;28;20366;-71
2022/09/18 10:52:37;;;;;;;1.45;0.93;;;11.60;99.90;;;;;;5073519;28;20513;-72
2022/09/18 10:55:06;;;;;;;0.82;0.70;;;11.50;99.90;;;;;;5074680;28;20023;-72
2022/09/18 10:57:32;;;;;;;0.70;0.70;;;11.50;99.90;;;;;;5083038;28;20401;-72
2022/09/18 10:59:58;;;;;;;1.05;0.70;;;11.50;99.90;;;;;;5094960;28;20020;-72
2022/09/18 11:02:26;;;;;;;0.85;0.85;;;11.50;99.90;;;;;;5095077;28;20016;-72
2022/09/18 11:04:53;;;;;;;0.75;0.57;;;11.50;99.90;;;;;;5094786;28;20469;-72
2022/09/18 11:07:20;;;;;;;0.68;0.60;;;11.40;99.90;;;;;;5095011;28;20047;-72
2022/09/18 11:09:47;;;;;;;0.93;0.80;;;11.30;99.90;;;;;;5093475;28;20020;-72
2022/09/18 11:12:22;;;;;;;0.80;0.68;;;11.20;99.90;;;;;;5094844;28;20012;-72
2022/09/18 11:14:55;;;;;;;0.70;0.70;;;11.10;99.90;;;;;;5094843;28;20027;-72
2022/09/18 11:17:27;;;;;;;0.75;0.75;;;11.20;99.90;;;;;;5094683;28;20025;-72
2022/09/18 11:19:55;;;;;;;0.75;0.70;;;11.40;99.90;;;;;;5094532;28;20020;-72
2022/09/18 11:22:43;;;;;;;0.77;0.77;;;11.30;99.90;;;;;;5094689;28;20469;-72
2022/09/18 11:25:15;;;;;;;1.60;1.08;;;11.30;99.90;;;;;;5093264;28;20545;-72
2022/09/18 11:27:55;;;;;;;;;;;11.20;99.90;;;;;;5094647;28;20035;-72
2022/09/18 11:30:26;;;;;;;0.70;0.70;;;11.30;99.90;;;;;;5094239;28;19989;-72
2022/09/18 11:33:08;;;;;;;1.00;0.82;;;11.30;99.90;;;;;;5094607;28;20385;-72
2022/09/18 11:35:35;;;;;;;1.27;0.93;;;11.50;99.90;;;;;;5093015;28;20145;-72
2022/09/18 11:38:06;;;;;;;1.08;0.60;;;11.60;99.90;;;;;;5094299;28;20298;-73
2022/09/18 11:40:49;;;;;;;0.50;0.50;;;11.70;99.90;;;;;;5094251;28;20073;-71
2022/09/18 11:43:25;;;;;;;0.50;0.50;;;11.70;99.90;;;;;;5094257;28;20020;-72
2022/09/18 11:46:22;;;;;;;0.80;0.80;;;11.80;99.90;;;;;;5092794;28;20020;-72
2022/09/18 11:48:56;;;;;;;1.60;0.90;;;12.00;99.90;;;;;;5094303;28;20073;-72
2022/09/18 11:51:32;;;;;;;1.38;0.77;;;12.00;99.90;;;;;;5092951;28;20035;-72
2022/09/18 11:54:05;;;;;;;1.00;0.90;;;12.00;99.90;;;;;;5092710;28;20137;-71
2022/09/18 11:56:43;;;;;;;1.15;0.93;;;11.90;99.90;;;;;;5093967;28;20024;-72
2022/09/18 11:59:33;;;;;;;0.98;0.98;;;11.80;99.90;;;;;;5092703;28;20032;-72
2022/09/18 12:02:30;;;;;;;1.52;1.25;;;11.70;99.90;;;;;;5094037;28;20111;-72
2022/09/18 12:05:27;;;;;;;3.35;1.10;;;11.50;99.90;;;;;;5093818;28;20122;-72
2022/09/18 12:08:17;;;;;;;2.05;1.63;;;11.20;99.90;;;;;;5085905;28;20032;-72
2022/09/18 12:11:15;;;;;;;2.58;2.10;;;11.10;99.90;;;;;;5093718;28;20104;-72
2022/09/18 12:14:02;;;;;;;2.75;1.50;;;11.20;99.90;;;;;;5092419;28;20024;-72
2022/09/18 12:16:54;;;;;;;3.95;1.70;;;11.50;99.90;;;;;;5093699;28;20385;-72
2022/09/18 12:19:40;;;;;;;1.70;1.60;;;11.50;99.90;;;;;;5087987;28;20470;-72
2022/09/18 12:22:13;;;;;;;1.65;1.55;;;11.60;99.90;;;;;;5072919;28;20394;-72
2022/09/18 12:24:39;;;;;;;3.05;1.55;;;11.70;99.90;;;;;;5073438;28;20127;-72
2022/09/18 12:27:27;;;;;;;1.77;1.33;;;11.70;99.90;;;;;;5073491;28;20100;-72
2022/09/18 12:30:18;;;;;;;1.40;1.20;;;11.80;99.90;;;;;;5071999;28;20549;-72
2022/09/18 12:33:17;;;;;;;1.80;1.05;;;12.10;99.90;;;;;;5073534;28;20028;-72
2022/09/18 12:35:54;;;;;;;1.67;1.00;;;12.30;99.90;;;;;;5073457;28;20020;-72
2022/09/18 12:38:40;;;;;;;1.02;0.98;;;12.40;99.90;;;;;;5073434;28;20028;-73
2022/09/18 12:41:42;;;;;;;1.75;1.40;;;12.50;99.90;;;;;;5076162;28;20032;-72
2022/09/18 12:44:21;;;;;;;2.63;2.03;;;12.40;99.90;;;;;;5095714;28;20021;-72
2022/09/18 12:47:20;;;;;;;1.05;1.00;;;12.20;99.90;;;;;;5096406;28;20327;-73
2022/09/18 12:50:11;;;;;;;3.03;1.20;;;11.80;99.90;;;;;;5087081;28;20044;-71
2022/09/18 12:53:12;;;;;;;1.27;1.00;;;11.40;99.90;;;;;;5097606;28;20519;-71
2022/09/18 12:56:03;;;;;;;1.10;0.95;;;11.20;99.90;;;;;;5097391;28;20487;-72
2022/09/18 12:58:50;;;;;;;1.95;0.88;;;11.00;99.90;;;;;;5097771;28;20469;-72
2022/09/18 13:01:18;;;;;;;1.70;1.20;;;10.80;99.90;;;;;;5095982;28;20024;-72
2022/09/18 13:03:47;;;;;;;1.30;1.20;;;10.80;99.90;;;;;;5094880;28;20103;-71
2022/09/18 13:06:19;;;;;;;1.45;1.10;;;10.80;99.90;;;;;;5094936;28;20103;-72
2022/09/18 13:08:49;;;;;;;;;;;10.80;99.90;;;;;;5095434;28;20035;-71
2022/09/18 13:11:31;;;;;;;1.95;1.30;;;10.70;99.90;;;;;;5096179;28;20254;-72
2022/09/18 13:14:20;;;;;;;1.55;1.02;;;10.70;99.90;;;;;;5091793;28;20032;-72
2022/09/18 13:16:48;;;;;;;23.77;13.77;;;10.60;99.90;;;;;;5076701;28;20473;-72